Time;durP1;ratioP1;P1;durP2;ratioP2;P2;SDS_P1;SDS_P2;PMS_P1;PMS_P2;Temp;Humidity;BMP_temperature;BMP_pressure;BME280_temperature;BME280_humidity;BME280_pressure;Samples;Min_cycle;Max_cycle;Signal;HPM_P1;HPM_P2
2021/03/24 00:01:15;;;;;;;25.30;11.60;;;;;;;-0.77;79.97;99956.69;5092311;28;20048;-81
2021/03/24 00:03:42;;;;;;;26.27;12.43;;;;;;;-0.86;79.55;99964.41;5092894;28;20392;-81
2021/03/24 00:06:08;;;;;;;27.50;12.97;;;;;;;-0.83;79.77;99961.53;5090360;28;20048;-81
2021/03/24 00:08:35;;;;;;;22.80;11.90;;;;;;;-0.83;79.31;99964.22;5092875;28;20058;-81
2021/03/24 00:11:02;;;;;;;27.10;11.77;;;;;;;-1.00;79.58;99944.72;5092032;28;20044;-82
2021/03/24 00:13:29;;;;;;;26.27;11.97;;;;;;;-1.03;80.02;99954.75;5092827;28;20139;-81
2021/03/24 00:15:56;;;;;;;25.70;12.23;;;;;;;-1.10;80.64;99971.13;5091964;28;20040;-82
2021/03/24 00:18:22;;;;;;;25.30;12.37;;;;;;;-1.05;80.85;99977.97;5091113;28;20048;-82
2021/03/24 00:20:49;;;;;;;35.10;12.97;;;;;;;-1.16;80.65;99946.59;5064581;28;817753;-81
2021/03/24 00:23:15;;;;;;;28.87;12.10;;;;;;;-1.07;80.32;99962.94;5092869;28;20059;-81
2021/03/24 00:25:42;;;;;;;29.17;12.10;;;;;;;-1.11;79.54;99942.69;5093252;28;20044;-81
2021/03/24 00:28:10;;;;;;;27.73;11.93;;;;;;;-1.26;80.21;99946.28;5093579;28;20048;-81
2021/03/24 00:30:42;;;;;;;21.50;10.77;;;;;;;-1.22;80.78;99960.28;5093059;28;20056;-81
2021/03/24 00:33:10;;;;;;;25.77;12.23;;;;;;;-1.17;80.29;99951.06;5093399;28;20118;-81
2021/03/24 00:35:37;;;;;;;28.63;12.60;;;;;;;-1.17;80.57;99958.25;5092259;28;20116;-81
2021/03/24 00:38:03;;;;;;;28.83;12.90;;;;;;;-1.31;80.97;99938.56;5093667;28;20059;-81
2021/03/24 00:40:37;;;;;;;26.90;12.60;;;;;;;-1.15;80.51;99967.84;5092873;28;20056;-81
2021/03/24 00:43:04;;;;;;;27.87;11.83;;;;;;;-1.24;80.39;99963.06;5091381;28;20070;-81
2021/03/24 00:45:31;;;;;;;21.53;10.80;;;;;;;-1.32;80.19;99938.66;5091966;28;20586;-81
2021/03/24 00:47:58;;;;;;;25.57;12.60;;;;;;;-1.23;79.68;99947.91;5092935;28;20082;-81
2021/03/24 00:50:28;;;;;;;33.47;12.17;;;;;;;-1.30;80.04;99942.94;5092670;28;20491;-81
2021/03/24 00:52:55;;;;;;;;;;;;;;;-1.28;80.19;99953.50;5093390;28;20051;-81
2021/03/24 00:55:22;;;;;;;24.67;11.10;;;;;;;-1.46;80.82;99934.97;5092429;28;19943;-82
2021/03/24 00:57:48;;;;;;;26.67;11.40;;;;;;;-1.28;80.70;99950.84;5092070;28;20511;-81
2021/03/24 01:00:17;;;;;;;24.93;11.33;;;;;;;-1.32;80.62;99950.16;5092903;28;20048;-81
2021/03/24 01:02:43;;;;;;;26.33;10.73;;;;;;;-1.49;81.09;99951.16;5092225;28;20403;-81
2021/03/24 01:05:14;;;;;;;21.50;10.90;;;;;;;-1.62;81.47;99937.66;5091696;28;20411;-81
2021/03/24 01:07:41;;;;;;;25.67;11.37;;;;;;;-1.62;81.62;99942.16;5092222;28;20403;-81
2021/03/24 01:10:10;;;;;;;26.37;10.77;;;;;;;-1.78;81.38;99923.50;5091632;28;20070;-81
2021/03/24 01:12:37;;;;;;;23.77;11.15;;;;;;;-1.75;81.43;99928.66;5092315;28;20051;-81
2021/03/24 01:15:04;;;;;;;25.23;10.67;;;;;;;-1.71;81.64;99926.69;5091876;28;20048;-81
2021/03/24 01:17:31;;;;;;;26.43;11.97;;;;;;;-1.71;81.04;99903.53;5093247;28;20060;-81
2021/03/24 01:19:57;;;;;;;21.93;10.40;;;;;;;-1.77;81.60;99914.56;5091009;28;20047;-81
2021/03/24 01:22:24;;;;;;;25.53;10.70;;;;;;;-1.64;81.23;99938.69;5092583;28;20072;-81
2021/03/24 01:24:52;;;;;;;23.57;10.27;;;;;;;-1.67;81.84;99934.41;5091590;28;20048;-81
2021/03/24 01:27:19;;;;;;;27.03;10.60;;;;;;;-1.73;81.41;99918.78;5092724;28;20052;-81
2021/03/24 01:29:45;;;;;;;29.30;12.73;;;;;;;-1.67;80.78;99912.19;5091962;28;20488;-82
2021/03/24 01:32:12;;;;;;;25.60;10.97;;;;;;;-1.68;80.85;99918.50;5092253;28;20476;-81
2021/03/24 01:34:38;;;;;;;23.70;10.67;;;;;;;-1.70;80.35;99913.25;5091495;28;20040;-81
2021/03/24 01:37:05;;;;;;;28.13;10.37;;;;;;;-1.73;80.37;99912.56;5092004;28;20518;-81
2021/03/24 01:39:33;;;;;;;26.80;11.77;;;;;;;-1.74;81.34;99917.03;5092271;28;20036;-81
2021/03/24 01:41:59;;;;;;;19.83;10.37;;;;;;;-1.76;81.46;99928.72;5092614;28;20048;-81
2021/03/24 01:44:26;;;;;;;22.13;10.20;;;;;;;-1.82;81.22;99925.47;5091895;28;20131;-81
2021/03/24 01:46:52;;;;;;;21.33;10.00;;;;;;;-1.85;81.10;99914.13;5091804;28;20047;-81
2021/03/24 01:49:24;;;;;;;19.37;9.73;;;;;;;-1.72;80.96;99928.47;5092047;28;20052;-81
2021/03/24 01:51:56;;;;;;;23.77;10.57;;;;;;;-1.82;81.10;99938.81;5092070;28;20051;-82
2021/03/24 01:54:27;;;;;;;20.33;9.70;;;;;;;-2.05;81.13;99913.44;5090611;28;20056;-82
2021/03/24 01:57:00;;;;;;;24.30;10.90;;;;;;;-2.00;81.70;99922.06;5091697;28;20060;-82
2021/03/24 01:59:26;;;;;;;23.37;10.07;;;;;;;-1.90;81.70;99927.72;5090372;28;20048;-82
2021/03/24 02:01:54;;;;;;;26.37;11.23;;;;;;;-1.92;81.17;99921.63;5091166;28;20509;-82
2021/03/24 02:04:20;;;;;;;25.33;11.20;;;;;;;-1.90;82.13;99917.06;5090818;28;20408;-82
2021/03/24 02:06:54;;;;;;;22.57;11.07;;;;;;;-1.96;81.61;99914.72;5091071;28;20043;-82
2021/03/24 02:09:33;;;;;;;25.70;10.30;;;;;;;-1.97;81.73;99913.88;5084058;28;20051;-82
2021/03/24 02:12:07;;;;;;;30.27;10.68;;;;;;;-1.93;81.64;99919.88;5090596;28;20093;-83
2021/03/24 02:14:39;;;;;;;29.53;10.93;;;;;;;-2.08;81.48;99910.09;5083881;28;20409;-82
2021/03/24 02:17:06;;;;;;;28.43;11.87;;;;;;;-2.02;82.07;99928.41;5077463;28;20480;-82
2021/03/24 02:19:44;;;;;;;31.97;11.40;;;;;;;-2.22;82.67;99917.06;5090138;28;20287;-82
2021/03/24 02:22:14;;;;;;;25.70;10.90;;;;;;;-2.33;82.65;99904.34;5091011;28;20051;-82
2021/03/24 02:24:48;;;;;;;22.67;10.02;;;;;;;-2.10;82.83;99926.19;5090564;28;20044;-82
2021/03/24 02:27:19;;;;;;;23.60;10.57;;;;;;;-2.12;82.72;99925.41;5091054;28;20127;-82
2021/03/24 02:29:52;;;;;;;25.13;11.40;;;;;;;-2.04;82.83;99916.97;5091440;28;20105;-82
2021/03/24 02:32:22;;;;;;;25.00;11.47;;;;;;;-1.98;82.61;99921.97;5091010;28;20056;-82
2021/03/24 02:34:50;;;;;;;27.30;10.67;;;;;;;-2.01;83.07;99916.81;5089286;28;20066;-82
2021/03/24 02:37:18;;;;;;;24.67;10.93;;;;;;;-2.18;83.14;99910.63;5090267;28;20462;-82
2021/03/24 02:39:48;;;;;;;21.53;10.73;;;;;;;-2.23;83.68;99886.06;5090997;28;20051;-82
2021/03/24 02:42:18;;;;;;;27.15;10.77;;;;;;;-2.06;84.23;99903.75;5090402;28;20047;-82
2021/03/24 02:44:45;;;;;;;28.63;11.77;;;;;;;-2.00;83.34;99902.56;5090464;28;20567;-82
2021/03/24 02:47:13;;;;;;;22.60;10.33;;;;;;;-2.02;82.66;99899.09;5090475;28;20067;-82
2021/03/24 02:49:43;;;;;;;32.77;11.17;;;;;;;-2.10;82.69;99891.53;5090987;28;20052;-82
2021/03/24 02:52:11;;;;;;;30.88;10.38;;;;;;;-2.06;84.59;99902.88;5089994;28;20048;-82
2021/03/24 02:54:40;;;;;;;31.60;12.17;;;;;;;-2.00;85.63;99891.91;5090504;28;20047;-82
2021/03/24 02:57:07;;;;;;;37.57;13.07;;;;;;;-1.88;85.55;99901.84;5090387;28;20059;-82
2021/03/24 02:59:34;;;;;;;26.90;11.07;;;;;;;-1.85;85.72;99900.78;5090666;28;20138;-83
2021/03/24 03:02:07;;;;;;;33.13;12.67;;;;;;;-1.92;85.38;99913.63;5090710;28;20043;-82
2021/03/24 03:04:38;;;;;;;28.10;10.90;;;;;;;-2.09;84.47;99900.38;5089696;28;20048;-82
2021/03/24 03:07:09;;;;;;;28.23;11.17;;;;;;;-2.15;84.17;99891.81;5090492;28;20057;-82
2021/03/24 03:09:45;;;;;;;23.67;10.93;;;;;;;-1.95;83.81;99927.13;5089766;28;20051;-82
2021/03/24 03:12:21;;;;;;;25.37;10.60;;;;;;;-1.96;83.21;99909.41;5088874;28;20048;-82
2021/03/24 03:14:54;;;;;;;25.47;11.43;;;;;;;-2.03;83.06;99906.25;5089503;28;20047;-82
2021/03/24 03:17:28;;;;;;;26.47;11.03;;;;;;;-2.32;83.07;99889.22;5072093;28;20412;-82
2021/03/24 03:20:01;;;;;;;28.97;10.50;;;;;;;-2.15;82.68;99915.78;5080862;28;20479;-82
2021/03/24 03:22:32;;;;;;;23.23;9.87;;;;;;;-2.25;83.30;99913.72;5079163;28;20077;-82
2021/03/24 03:25:01;;;;;;;28.00;11.30;;;;;;;-2.36;82.82;99903.66;5089609;28;20044;-82
2021/03/24 03:27:30;;;;;;;24.80;10.02;;;;;;;-2.30;83.01;99916.63;5090564;28;20048;-82
2021/03/24 03:30:01;;;;;;;31.83;11.40;;;;;;;-2.30;83.40;99916.63;5090056;28;20252;-82
2021/03/24 03:32:30;;;;;;;29.90;10.50;;;;;;;-2.32;83.33;99926.50;5090119;28;20048;-83
2021/03/24 03:35:00;;;;;;;26.37;9.83;;;;;;;-2.37;82.82;99900.13;5089535;28;20051;-83
2021/03/24 03:37:28;;;;;;;27.73;11.07;;;;;;;-2.33;83.00;99908.81;5089763;28;20433;-82
2021/03/24 03:39:55;;;;;;;25.87;10.53;;;;;;;-2.30;83.00;99911.31;5090277;28;20055;-81
2021/03/24 03:42:23;;;;;;;25.90;11.47;;;;;;;-2.32;83.06;99900.75;5090159;28;20087;-82
2021/03/24 03:44:51;;;;;;;21.70;10.60;;;;;;;-2.46;83.80;99915.75;5089701;28;20048;-82
2021/03/24 03:47:18;;;;;;;23.37;10.50;;;;;;;-2.60;84.01;99898.72;5089724;28;20365;-81
2021/03/24 03:49:45;;;;;;;25.10;11.50;;;;;;;-2.67;83.57;99878.69;5090312;28;20052;-82
2021/03/24 03:52:24;;;;;;;26.50;10.27;;;;;;;-2.67;84.86;99886.69;5089183;28;20036;-82
2021/03/24 03:54:58;;;;;;;26.30;10.90;;;;;;;-2.56;84.63;99897.63;5089357;28;20066;-82
2021/03/24 03:57:35;;;;;;;25.17;11.00;;;;;;;-2.44;83.83;99892.56;5090171;28;20071;-82
2021/03/24 04:00:12;;;;;;;26.43;11.90;;;;;;;-2.46;83.87;99891.78;5090304;28;20465;-82
2021/03/24 04:02:44;;;;;;;25.33;11.30;;;;;;;-2.45;82.56;99878.38;5090186;28;20048;-82
2021/03/24 04:05:19;;;;;;;19.97;10.03;;;;;;;-2.49;82.77;99901.66;5088805;28;20044;-81
2021/03/24 04:07:53;;;;;;;24.87;10.57;;;;;;;-2.80;82.57;99872.31;5089706;28;20408;-82
2021/03/24 04:10:22;;;;;;;25.47;9.73;;;;;;;-2.89;82.83;99871.88;5088203;28;20059;-82
2021/03/24 04:12:48;;;;;;;27.00;12.03;;;;;;;-2.78;83.01;99892.59;5089383;28;20040;-82
2021/03/24 04:15:18;;;;;;;24.40;10.03;;;;;;;-2.78;82.97;99895.25;5089433;28;20059;-81
2021/03/24 04:17:48;;;;;;;21.60;10.37;;;;;;;-2.85;82.70;99891.19;5089706;28;20036;-82
2021/03/24 04:20:18;;;;;;;26.93;9.63;;;;;;;-2.91;82.76;99895.03;5088368;28;20055;-82
2021/03/24 04:22:46;;;;;;;24.63;10.27;;;;;;;-2.91;82.24;99886.19;5089757;28;20048;-81
2021/03/24 04:25:18;;;;;;;27.07;10.33;;;;;;;-2.90;82.31;99896.75;5089211;28;20055;-81
2021/03/24 04:27:48;;;;;;;23.93;10.30;;;;;;;-3.10;82.75;99887.19;5089402;28;20077;-81
2021/03/24 04:30:19;;;;;;;18.88;9.40;;;;;;;-3.05;82.71;99885.13;5089590;28;20044;-81
2021/03/24 04:32:48;;;;;;;25.77;10.80;;;;;;;-2.82;82.68;99895.50;5090684;28;20066;-82
2021/03/24 04:35:19;;;;;;;24.23;10.77;;;;;;;-3.02;82.34;99884.97;5092770;28;20051;-82
2021/03/24 04:37:49;;;;;;;30.67;12.87;;;;;;;-2.99;83.02;99886.59;5093338;28;20051;-81
2021/03/24 04:40:24;;;;;;;25.43;10.33;;;;;;;-3.24;83.92;99884.38;5093866;28;20407;-82
2021/03/24 04:42:54;;;;;;;22.63;10.53;;;;;;;-3.21;84.24;99897.50;5093527;28;20048;-82
2021/03/24 04:45:31;;;;;;;22.67;9.93;;;;;;;-3.14;83.32;99898.06;5092640;28;20040;-82
2021/03/24 04:48:04;;;;;;;24.23;11.10;;;;;;;-3.08;83.22;99898.59;5093422;28;20395;-82
2021/03/24 04:50:34;;;;;;;22.53;10.10;;;;;;;-3.11;83.05;99897.91;5086657;28;20052;-82
2021/03/24 04:53:04;;;;;;;25.00;10.20;;;;;;;-3.04;82.76;99907.25;5093735;28;20135;-82
2021/03/24 04:55:34;;;;;;;29.90;11.07;;;;;;;-3.20;83.74;99900.09;5092063;28;20540;-82
2021/03/24 04:58:05;;;;;;;25.67;10.07;;;;;;;-3.12;84.55;99920.97;5093086;28;20510;-82
2021/03/24 05:00:38;;;;;;;24.97;9.90;;;;;;;-3.30;84.97;99885.53;5093184;28;20051;-81
2021/03/24 05:03:09;;;;;;;26.80;10.30;;;;;;;-3.12;84.23;99882.88;5093024;28;20377;-82
2021/03/24 05:05:43;;;;;;;20.27;10.60;;;;;;;-3.04;84.21;99905.47;5092780;28;20074;-82
2021/03/24 05:08:18;;;;;;;24.03;10.30;;;;;;;-3.05;84.19;99893.09;5083120;28;20040;-82
2021/03/24 05:10:47;;;;;;;26.73;10.77;;;;;;;-3.03;83.56;99909.00;5091244;28;20048;-82
2021/03/24 05:13:24;;;;;;;20.25;8.43;;;;;;;-3.16;83.60;99905.25;5092779;28;20067;-82
2021/03/24 05:15:58;;;;;;;22.63;10.13;;;;;;;-3.29;83.84;99889.06;5093224;28;20058;-82
2021/03/24 05:18:26;;;;;;;25.67;9.90;;;;;;;-3.23;84.44;99912.69;5090898;28;20160;-82
2021/03/24 05:20:58;;;;;;;23.17;10.43;;;;;;;-3.11;84.08;99925.34;5092765;28;20464;-82
2021/03/24 05:23:25;;;;;;;24.23;10.00;;;;;;;-3.17;83.64;99907.06;5092536;28;20106;-83
2021/03/24 05:25:59;;;;;;;26.00;10.27;;;;;;;-3.14;83.33;99890.94;5092523;28;20052;-82
2021/03/24 05:28:31;;;;;;;20.43;9.57;;;;;;;-3.24;82.87;99895.88;5092239;28;20519;-82
2021/03/24 05:31:02;;;;;;;24.53;10.47;;;;;;;-3.27;84.78;99895.16;5092587;28;20052;-82
2021/03/24 05:33:33;;;;;;;24.97;11.03;;;;;;;-3.11;85.16;99900.56;5092667;28;20106;-82
2021/03/24 05:36:05;;;;;;;23.03;11.00;;;;;;;-3.09;84.82;99927.94;5081674;28;20040;-82
2021/03/24 05:38:35;;;;;;;27.57;11.97;;;;;;;-3.19;85.63;99914.25;5073963;28;20052;-82
2021/03/24 05:41:28;;;;;;;29.27;11.60;;;;;;;-3.14;84.97;99903.38;5092570;28;20040;-82
2021/03/24 05:44:27;;;;;;;22.80;10.70;;;;;;;-2.95;84.79;99937.84;5091967;28;20168;-82
2021/03/24 05:47:21;;;;;;;27.52;10.32;;;;;;;-2.94;84.46;99936.91;5091437;28;20052;-82
2021/03/24 05:50:02;;;;;;;31.40;12.37;;;;;;;-2.98;84.70;99925.59;5092610;28;20117;-82
2021/03/24 05:52:51;;;;;;;32.03;11.30;;;;;;;-2.93;84.18;99931.50;5092955;28;20040;-82
2021/03/24 05:55:51;;;;;;;31.83;12.95;;;;;;;-2.82;83.27;99917.63;5092132;28;20060;-82
2021/03/24 05:58:30;;;;;;;30.20;12.70;;;;;;;-2.68;83.63;99930.22;5092568;28;20047;-82
2021/03/24 06:01:07;;;;;;;31.23;14.67;;;;;;;-2.77;83.80;99904.97;5092371;28;20044;-82
2021/03/24 06:04:07;;;;;;;34.97;12.67;;;;;;;-2.69;84.07;99932.03;5093102;28;20498;-82
2021/03/24 06:07:04;;;;;;;28.45;11.43;;;;;;;-2.64;84.23;99918.47;5089929;28;20040;-82
2021/03/24 06:09:46;;;;;;;27.57;11.10;;;;;;;-2.69;83.96;99918.72;5092670;28;20488;-82
2021/03/24 06:12:32;;;;;;;26.90;12.83;;;;;;;-2.24;82.97;99931.41;5091502;28;20040;-82
2021/03/24 06:15:18;;;;;;;29.07;13.20;;;;;;;-1.57;80.70;99933.88;5086001;28;20052;-82
2021/03/24 06:18:13;;;;;;;34.57;14.47;;;;;;;-1.32;79.19;99935.97;5092040;28;20051;-83
2021/03/24 06:21:05;;;;;;;33.90;13.17;;;;;;;-1.09;78.16;99908.75;5083480;28;20126;-82
2021/03/24 06:23:47;;;;;;;25.80;12.50;;;;;;;-0.57;77.24;99928.75;5092462;28;20127;-82
2021/03/24 06:26:32;;;;;;;26.10;11.53;;;;;;;-0.51;76.50;99935.53;5088063;28;20044;-82
2021/03/24 06:29:34;;;;;;;21.07;10.70;;;;;;;-0.47;76.78;99921.03;5092548;28;20067;-82
2021/03/24 06:32:36;;;;;;;26.13;11.57;;;;;;;-0.36;77.51;99926.56;5089827;28;20052;-81
2021/03/24 06:35:19;;;;;;;22.20;11.10;;;;;;;-0.52;77.64;99922.28;5070033;28;20047;-81
2021/03/24 06:38:06;;;;;;;28.53;12.23;;;;;;;-0.53;78.14;99916.06;5090972;28;20048;-81
2021/03/24 06:41:05;;;;;;;29.07;13.83;;;;;;;-0.30;77.94;99930.66;5077857;28;20056;-82
2021/03/24 06:44:03;;;;;;;36.55;12.73;;;;;;;-0.22;78.04;99935.53;5071953;28;20040;-81
2021/03/24 06:46:37;;;;;;;31.83;13.20;;;;;;;-0.05;77.98;99927.28;5087659;28;20044;-81
2021/03/24 06:49:51;;;;;;;27.60;13.37;;;;;;;0.15;77.79;99934.03;5091999;28;20048;-82
2021/03/24 06:52:58;;;;;;;34.57;13.87;;;;;;;0.40;76.47;99926.22;5042653;28;20051;-82
2021/03/24 06:56:29;;;;;;;32.00;12.57;;;;;;;0.50;76.17;99924.66;5038599;28;20105;-82
2021/03/24 06:59:27;;;;;;;27.10;12.33;;;;;;;0.79;75.45;99913.81;5069924;28;20142;-82
2021/03/24 07:02:30;;;;;;;28.00;13.47;;;;;;;1.17;74.61;99929.91;5090401;28;20143;-82
2021/03/24 07:05:19;;;;;;;23.93;12.73;;;;;;;1.26;75.66;99920.38;5090752;28;20040;-82
2021/03/24 07:08:22;;;;;;;29.40;13.17;;;;;;;1.26;76.92;99931.09;5090703;28;20048;-82
2021/03/24 07:10:57;;;;;;;36.33;13.20;;;;;;;1.36;76.57;99918.78;5090115;28;20051;-82
2021/03/24 07:14:08;;;;;;;31.47;13.87;;;;;;;1.35;76.83;99914.38;5090883;28;20059;-82
2021/03/24 07:16:58;;;;;;;31.10;13.77;;;;;;;1.44;78.78;99922.75;5079466;28;20052;-83
2021/03/24 07:19:43;;;;;;;28.53;12.90;;;;;;;1.64;78.33;99932.03;5089183;28;20040;-82
2021/03/24 07:22:23;;;;;;;32.97;13.87;;;;;;;1.88;78.36;99937.47;5091374;28;20048;-82
2021/03/24 07:25:34;;;;;;;33.97;13.55;;;;;;;1.90;77.66;99951.66;5091351;28;20373;-82
2021/03/24 07:28:34;;;;;;;32.83;13.70;;;;;;;1.89;78.00;99957.97;5091757;28;20052;-82
2021/03/24 07:31:29;;;;;;;31.25;13.10;;;;;;;2.13;77.06;99947.28;5088234;28;20197;-82
2021/03/24 07:34:06;;;;;;;47.05;14.38;;;;;;;2.14;77.80;99943.66;5091323;28;20048;-83
2021/03/24 07:36:58;;;;;;;34.30;13.65;;;;;;;2.39;76.83;99945.38;5092244;28;20048;-82
2021/03/24 07:43:09;;;;;;;24.83;13.88;;;;;;;2.65;76.25;99945.28;5091795;28;20055;-83
2021/03/24 07:46:02;;;;;;;31.90;12.95;;;;;;;2.80;75.45;99937.88;5091156;28;20138;-83
2021/03/24 07:48:52;;;;;;;29.52;13.32;;;;;;;2.96;74.91;99951.00;5091514;28;20071;-82
2021/03/24 07:51:33;;;;;;;35.30;12.57;;;;;;;3.14;74.41;99959.50;5091721;28;20056;-83
2021/03/24 07:54:04;;;;;;;;;;;;;;;3.35;74.67;99952.44;5090274;28;20055;-82
2021/03/24 07:56:39;;;;;;;31.75;14.27;;;;;;;3.28;74.93;99936.91;5090955;28;19920;-82
2021/03/24 07:59:51;;;;;;;38.22;16.58;;;;;;;3.58;76.03;99924.75;5087459;28;20521;-82
2021/03/24 08:02:39;;;;;;;28.98;14.88;;;;;;;3.81;75.52;99928.28;5090202;28;20063;-82
2021/03/24 08:05:22;;;;;;;28.65;13.10;;;;;;;3.85;73.66;99935.13;5089225;28;20066;-82
2021/03/24 08:07:55;;;;;;;36.40;16.35;;;;;;;3.98;74.39;99924.25;5075491;28;20056;-85
2021/03/24 08:10:37;;;;;;;35.92;14.25;;;;;;;4.06;73.32;99919.09;5086363;28;20499;-84
2021/03/24 08:13:42;;;;;;;30.63;13.93;;;;;;;4.32;72.13;99940.31;5091212;28;20044;-85
2021/03/24 08:16:40;;;;;;;31.05;14.68;;;;;;;4.47;71.70;99935.53;5094110;28;20052;-84
2021/03/24 08:19:40;;;;;;;30.70;12.82;;;;;;;4.60;71.15;99937.06;5088715;28;20052;-85
2021/03/24 08:22:31;;;;;;;;;;;;;;;4.70;70.91;99939.00;5073137;28;20079;-85
2021/03/24 08:25:26;;;;;;;28.35;13.48;;;;;;;4.89;71.14;99933.78;5084981;28;19927;-85
2021/03/24 08:28:01;;;;;;;31.67;13.18;;;;;;;5.08;70.81;99933.06;5094565;28;20060;-85
2021/03/24 08:30:42;;;;;;;32.33;13.32;;;;;;;4.99;69.11;99927.63;5094010;28;20052;-85
2021/03/24 08:33:56;;;;;;;29.65;14.15;;;;;;;5.11;70.03;99922.00;5094834;28;20406;-85
2021/03/24 08:40:17;;;;;;;29.95;13.48;;;;;;;5.35;69.06;99917.34;5066626;28;20101;-85
2021/03/24 08:43:15;;;;;;;28.25;13.93;;;;;;;5.48;68.02;99932.34;5089830;28;20534;-85
2021/03/24 08:46:10;;;;;;;31.23;14.93;;;;;;;5.58;67.99;99915.34;5086093;28;20083;-84
2021/03/24 08:52:01;;;;;;;33.97;14.40;;;;;;;5.79;67.21;99932.34;5075641;28;20109;-84
2021/03/24 08:55:00;;;;;;;27.38;13.38;;;;;;;5.57;65.81;99914.50;5093519;28;20135;-85
2021/03/24 09:01:48;;;;;;;25.70;13.18;;;;;;;5.34;66.32;99891.38;5089804;28;20082;-85
2021/03/24 09:04:58;;;;;;;27.15;13.45;;;;;;;5.57;67.11;99894.75;5010414;28;20048;-84
2021/03/24 09:10:42;;;;;;;24.92;12.55;;;;;;;5.70;65.36;99908.03;5087529;28;20048;-84
2021/03/24 09:13:23;;;;;;;26.02;13.52;;;;;;;5.82;64.68;99931.22;5093490;28;20048;-84
2021/03/24 09:16:16;;;;;;;22.15;12.43;;;;;;;5.74;65.43;99910.31;5092407;28;20055;-84
2021/03/24 09:18:49;;;;;;;24.60;12.63;;;;;;;5.88;65.62;99910.94;5057305;28;20109;-84
2021/03/24 09:21:29;;;;;;;25.30;12.85;;;;;;;5.91;65.97;99906.09;5092990;28;20086;-85
2021/03/24 09:24:30;;;;;;;24.90;12.88;;;;;;;6.02;64.33;99906.03;5093289;28;20048;-84
2021/03/24 09:27:42;;;;;;;27.90;12.50;;;;;;;5.94;64.38;99905.84;5089604;28;20044;-85
2021/03/24 09:33:49;;;;;;;21.65;11.88;;;;;;;6.36;63.51;99908.38;5083025;28;20044;-84
2021/03/24 09:36:45;;;;;;;26.70;13.10;;;;;;;6.72;63.20;99918.66;5093861;28;20052;-83
2021/03/24 09:39:37;;;;;;;23.90;12.43;;;;;;;6.65;63.17;99907.56;5094567;28;20130;-84
2021/03/24 09:42:30;;;;;;;23.42;11.77;;;;;;;6.81;60.83;99912.41;5094886;28;20048;-84
2021/03/24 09:45:09;;;;;;;25.65;11.20;;;;;;;6.65;61.15;99895.91;5094122;28;20044;-84
2021/03/24 09:47:45;;;;;;;25.80;12.07;;;;;;;6.77;61.56;99885.81;5092357;28;20142;-83
2021/03/24 09:50:43;;;;;;;22.15;11.07;;;;;;;6.94;60.20;99886.94;5094683;28;20051;-86
2021/03/24 09:53:46;;;;;;;21.15;10.82;;;;;;;6.88;61.10;99877.53;5094909;28;20109;-86
2021/03/24 09:56:17;;;;;;;22.63;11.77;;;;;;;7.08;62.59;99884.63;5092468;28;20052;-83
2021/03/24 09:59:06;;;;;;;21.45;11.82;;;;;;;7.02;59.49;99887.09;5091391;28;20311;-82
2021/03/24 10:01:58;;;;;;;22.42;11.82;;;;;;;7.19;59.39;99902.53;5092323;28;20048;-82
2021/03/24 10:04:54;;;;;;;26.08;11.38;;;;;;;7.34;60.35;99877.75;5076910;28;20048;-82
2021/03/24 10:07:24;;;;;;;21.35;11.57;;;;;;;7.56;61.50;99863.03;5090102;28;20465;-85
2021/03/24 10:10:13;;;;;;;25.27;12.27;;;;;;;7.64;58.95;99881.22;5091756;28;20055;-85
2021/03/24 10:12:57;;;;;;;28.50;12.02;;;;;;;7.42;58.57;99877.88;5093296;28;20048;-86
2021/03/24 10:15:36;;;;;;;22.60;12.07;;;;;;;7.28;58.23;99873.78;5093869;28;20093;-83
2021/03/24 10:18:20;;;;;;;23.77;12.77;;;;;;;7.46;60.73;99871.16;5090196;28;20082;-86
2021/03/24 10:21:02;;;;;;;20.63;12.02;;;;;;;7.76;60.63;99888.16;5090802;28;20074;-85
2021/03/24 10:33:09;;;;;;;;;;;;;;;;;;;;;
2021/03/24 10:36:14;;;;;;;29.45;12.32;;;;;;;7.98;58.67;99868.81;5091435;28;20048;-86
2021/03/24 10:38:56;;;;;;;24.58;11.18;;;;;;;7.93;57.38;99848.59;5091968;28;20052;-86
2021/03/24 10:42:12;;;;;;;24.83;11.38;;;;;;;7.93;57.25;99849.47;5092043;28;20139;-86
2021/03/24 10:48:18;;;;;;;25.58;12.43;;;;;;;8.39;55.63;99859.44;5089322;28;20518;-87
2021/03/24 10:50:58;;;;;;;22.13;11.07;;;;;;;8.57;57.72;99845.94;5092161;28;20504;-86
2021/03/24 10:53:29;;;;;;;26.58;12.32;;;;;;;8.54;56.18;99832.69;5091207;28;20502;-85
2021/03/24 10:56:17;;;;;;;19.45;10.40;;;;;;;8.65;55.74;99852.25;5091127;28;20044;-86
2021/03/24 10:58:59;;;;;;;25.27;11.77;;;;;;;8.72;55.88;99827.25;5091241;28;20113;-86
2021/03/24 11:01:34;;;;;;;26.02;11.02;;;;;;;8.72;55.61;99844.38;5090430;28;20511;-86
2021/03/24 11:04:14;;;;;;;25.00;11.38;;;;;;;8.70;54.67;99846.34;5091597;28;20044;-86
2021/03/24 11:06:57;;;;;;;22.15;11.95;;;;;;;8.85;56.21;99827.69;5091277;28;20442;-85
2021/03/24 11:09:56;;;;;;;25.40;12.05;;;;;;;9.04;55.37;99822.06;5091436;28;20052;-85
2021/03/24 11:12:35;;;;;;;22.00;11.50;;;;;;;8.99;54.31;99813.56;5091161;28;20052;-86
2021/03/24 11:15:19;;;;;;;27.30;11.75;;;;;;;9.07;54.69;99815.47;5090903;28;20051;-86
2021/03/24 11:17:51;;;;;;;24.83;11.85;;;;;;;9.12;54.30;99813.16;5091746;28;20498;-86
2021/03/24 11:20:45;;;;;;;21.75;10.52;;;;;;;9.06;53.28;99808.34;5090287;28;20130;-86
2021/03/24 11:23:24;;;;;;;24.67;12.50;;;;;;;9.14;53.87;99802.97;5088215;28;20555;-85
2021/03/24 11:25:57;;;;;;;25.33;11.27;;;;;;;9.26;53.67;99809.00;5090939;28;20040;-86
2021/03/24 11:28:29;;;;;;;22.30;10.93;;;;;;;9.46;53.18;99825.88;5088637;28;20059;-86
2021/03/24 11:31:09;;;;;;;20.38;8.95;;;;;;;9.54;52.13;99822.34;5090300;28;20061;-86
2021/03/24 11:33:44;;;;;;;20.17;10.27;;;;;;;9.58;52.00;99812.88;5072898;28;20480;-85
2021/03/24 11:36:32;;;;;;;23.10;10.75;;;;;;;9.72;51.36;99814.13;5088892;28;20087;-86
2021/03/24 11:39:16;;;;;;;17.38;9.98;;;;;;;9.80;51.31;99811.44;5090331;28;20046;-86
2021/03/24 11:41:44;;;;;;;21.30;10.48;;;;;;;9.89;50.17;99810.47;5092629;28;20039;-85
2021/03/24 11:44:15;;;;;;;20.98;10.30;;;;;;;9.85;51.59;99817.22;5093980;28;20048;-85
2021/03/24 11:47:00;;;;;;;21.65;11.18;;;;;;;9.85;51.63;99790.06;5094866;28;20048;-86
2021/03/24 11:49:33;;;;;;;21.83;10.85;;;;;;;10.01;50.92;99802.00;5092239;28;20063;-86
2021/03/24 11:52:16;;;;;;;19.80;9.25;;;;;;;10.12;50.58;99803.53;5076610;28;20048;-86
2021/03/24 11:54:55;;;;;;;21.42;11.13;;;;;;;10.21;49.52;99797.13;5081838;28;20209;-85
2021/03/24 11:57:37;;;;;;;23.00;11.20;;;;;;;10.37;50.51;99816.22;5095013;28;20430;-85
2021/03/24 12:00:31;;;;;;;22.92;11.77;;;;;;;10.55;50.70;99798.88;5089443;28;20059;-86
2021/03/24 12:03:11;;;;;;;19.73;11.45;;;;;;;10.53;49.29;99788.19;5080618;28;20052;-86
2021/03/24 12:05:41;;;;;;;19.98;10.48;;;;;;;10.39;49.45;99780.72;5093405;28;20090;-85
2021/03/24 12:08:26;;;;;;;18.85;10.05;;;;;;;10.49;50.05;99789.53;5094508;28;20507;-86
2021/03/24 12:11:02;;;;;;;26.67;10.95;;;;;;;10.55;48.92;99778.00;5074482;28;20064;-86
2021/03/24 12:13:31;;;;;;;22.38;11.18;;;;;;;10.85;48.37;99785.63;5084292;28;20194;-84
2021/03/24 12:16:04;;;;;;;17.98;10.48;;;;;;;10.88;48.85;99788.00;5093486;28;20487;-86
2021/03/24 12:18:42;;;;;;;21.17;10.88;;;;;;;10.68;48.31;99765.75;5093539;28;20044;-86
2021/03/24 12:21:19;;;;;;;20.15;10.00;;;;;;;10.83;49.14;99769.47;5079321;28;20052;-85
2021/03/24 12:23:52;;;;;;;18.05;9.60;;;;;;;11.17;48.79;99765.69;5094223;28;20055;-86
2021/03/24 12:26:24;;;;;;;23.38;9.82;;;;;;;11.33;46.37;99764.78;5091762;28;20047;-86
2021/03/24 12:28:51;;;;;;;19.77;11.02;;;;;;;11.12;46.83;99755.28;5094289;28;20055;-86
2021/03/24 12:31:51;;;;;;;16.15;8.93;;;;;;;11.39;46.01;99755.91;5094380;28;20094;-86
2021/03/24 12:37:55;;;;;;;17.45;9.35;;;;;;;11.74;45.23;99752.84;5008526;28;20057;-86
2021/03/24 12:40:33;;;;;;;14.32;8.88;;;;;;;11.76;44.18;99750.81;5055118;28;20167;-86
2021/03/24 12:43:17;;;;;;;16.92;9.05;;;;;;;11.80;43.97;99739.38;5093920;28;20058;-86
2021/03/24 12:46:05;;;;;;;13.82;8.20;;;;;;;11.50;45.11;99735.59;5093350;28;20048;-86
2021/03/24 12:48:42;;;;;;;16.58;8.98;;;;;;;11.77;45.11;99745.19;5094629;28;20044;-86
2021/03/24 12:51:20;;;;;;;18.45;7.82;;;;;;;12.07;43.33;99739.91;5093276;28;20492;-86